KPBI

Palm Beach International Airport

West Palm Beach, Florida, USA
METAR KPBI 180053Z 09008KT 10SM SCT024 28/24 A3013 RMK AO2 SLP202 T02780239 $
Observed Flight Rules
Oct-18 @ 00:53 UTC (43 minutes ago) Visual Flight Rules
Wind Visibility Clouds
90° at 8 knots 10 miles
  • Scattered at 2,400' AGL
Temperatures Readings
Current 28°C / 82°F
Dewpoint 24°C / 75°F
Humidity 79%
Altimeter 30.13" Hg
Pressure 1020.2 hPa
Elevation 6
METAR KPBI 180053Z 09008KT 10SM SCT024 28/24 A3013 RMK AO2 SLP202 T02780239 $
Observed Flight Rules
Oct-18 @ 00:53 UTC
(43 minutes ago)
VFR
Wind Visibility
90° at 8 knots 10 miles
Clouds
  • Scattered at 2,400' AGL
Temperature Dewpoint
28°C / 82°F 24°C / 75°F
Humidity Altimeter Pressure
79% 30.13" Hg 1020.2 hPa